Time;durP1;ratioP1;P1;durP2;ratioP2;P2;SDS_P1;SDS_P2;PMS_P1;PMS_P2;Temp;Humidity;BMP_temperature;BMP_pressure;BME280_temperature;BME280_humidity;BME280_pressure;Samples;Min_cycle;Max_cycle;Signal;HPM_P1;HPM_P2
2021/03/05 00:01:37;;;;;;;16.30;14.30;;;;;;;9.63;68.23;95491.75;6971239;28;20210;-72
2021/03/05 00:04:58;;;;;;;23.90;15.07;;;;;;;9.71;68.06;95498.13;6976714;28;20219;-72
2021/03/05 00:08:18;;;;;;;21.43;16.03;;;;;;;9.74;67.98;95500.53;6971167;28;20293;-73
2021/03/05 00:11:38;;;;;;;23.33;16.47;;;;;;;9.71;68.08;95494.63;6966697;28;20644;-72
2021/03/05 00:14:59;;;;;;;29.80;17.40;;;;;;;9.70;67.67;95493.81;6978445;28;20228;-72
2021/03/05 00:18:22;;;;;;;22.20;16.50;;;;;;;9.75;68.10;95490.78;6975573;28;20221;-72
2021/03/05 00:21:42;;;;;;;24.37;17.83;;;;;;;9.73;67.68;95492.69;7002455;28;21070;-72
2021/03/05 00:25:04;;;;;;;24.07;16.77;;;;;;;9.73;67.21;95496.19;6984221;28;20251;-72
2021/03/05 00:28:24;;;;;;;21.73;16.90;;;;;;;9.71;67.36;95492.81;6960005;28;20281;-72
2021/03/05 00:31:45;;;;;;;27.03;17.40;;;;;;;9.65;67.08;95490.69;6945209;28;20598;-73
2021/03/05 00:35:10;;;;;;;24.17;17.17;;;;;;;9.61;67.40;95491.88;6979109;28;20626;-72
2021/03/05 00:38:30;;;;;;;24.43;17.80;;;;;;;9.59;67.36;95500.94;6967990;28;20234;-72
2021/03/05 00:41:50;;;;;;;24.03;17.13;;;;;;;9.66;67.31;95504.75;6946908;28;20249;-72
2021/03/05 00:45:13;;;;;;;23.53;17.37;;;;;;;9.69;67.37;95497.41;6964229;28;20221;-71
2021/03/05 00:48:36;;;;;;;22.30;17.93;;;;;;;9.67;67.17;95507.28;6964933;28;20709;-71
2021/03/05 00:51:57;;;;;;;23.27;16.80;;;;;;;9.68;67.15;95501.03;6963744;28;20223;-69
2021/03/05 00:55:18;;;;;;;20.07;17.33;;;;;;;9.68;66.84;95501.03;6955909;28;20638;-69
2021/03/05 00:58:38;;;;;;;19.93;17.23;;;;;;;9.66;66.95;95508.25;6994202;28;20210;-69
2021/03/05 01:01:59;;;;;;;20.43;16.47;;;;;;;9.60;66.43;95497.31;6970633;28;20294;-70
2021/03/05 01:05:19;;;;;;;27.30;17.37;;;;;;;9.63;67.00;95508.50;6956374;28;20677;-70
2021/03/05 01:08:44;;;;;;;24.13;16.67;;;;;;;9.62;66.50;95505.97;6967565;28;20224;-70
2021/03/05 01:12:08;;;;;;;22.33;15.87;;;;;;;9.62;66.86;95504.16;6960402;28;20791;-71
2021/03/05 01:15:28;;;;;;;22.67;17.13;;;;;;;9.62;66.75;95498.88;6964141;28;20309;-70
2021/03/05 01:18:51;;;;;;;21.00;17.37;;;;;;;9.64;66.74;95498.75;6967868;28;20213;-70
2021/03/05 01:22:12;;;;;;;21.30;17.23;;;;;;;9.65;66.73;95487.19;6984416;28;20279;-70
2021/03/05 01:25:33;;;;;;;23.50;17.33;;;;;;;9.66;66.47;95478.25;6968258;28;20213;-70
2021/03/05 01:28:53;;;;;;;21.47;16.50;;;;;;;9.63;65.88;95483.81;6953292;28;20221;-70
2021/03/05 01:32:14;;;;;;;23.23;15.83;;;;;;;9.62;65.95;95485.63;6992387;28;20221;-70
2021/03/05 01:35:37;;;;;;;24.73;17.43;;;;;;;9.53;65.76;95485.53;6977534;28;20785;-71
2021/03/05 01:38:57;;;;;;;21.60;17.87;;;;;;;9.40;66.07;95483.88;6982273;28;20231;-71
2021/03/05 01:42:18;;;;;;;22.30;17.10;;;;;;;9.43;66.53;95474.81;6971867;28;20254;-71
2021/03/05 01:45:39;;;;;;;23.13;16.53;;;;;;;9.49;67.16;95482.28;6988082;28;20205;-71
2021/03/05 01:48:59;;;;;;;24.47;16.97;;;;;;;9.51;66.74;95475.03;6976585;28;21260;-70
2021/03/05 01:52:20;;;;;;;26.00;18.03;;;;;;;9.50;66.47;95475.19;6954903;28;20765;-70
2021/03/05 01:55:40;;;;;;;24.60;18.07;;;;;;;9.47;66.92;95478.91;6979679;28;20209;-70
2021/03/05 01:59:01;;;;;;;22.50;17.20;;;;;;;9.44;67.01;95480.00;6966783;28;20228;-70
2021/03/05 02:02:23;;;;;;;25.60;19.03;;;;;;;9.45;67.64;95483.50;6952147;28;20214;-70
2021/03/05 02:05:44;;;;;;;27.70;18.53;;;;;;;9.46;66.88;95486.00;6965336;28;20216;-70
2021/03/05 02:09:06;;;;;;;22.03;18.50;;;;;;;9.48;67.24;95476.13;6963010;28;20283;-70
2021/03/05 02:12:27;;;;;;;22.50;17.50;;;;;;;9.47;67.50;95470.94;6951008;28;20306;-70
2021/03/05 02:15:47;;;;;;;21.77;17.57;;;;;;;9.43;67.34;95469.53;6955694;28;20478;-70
2021/03/05 02:19:41;;;;;;;22.40;15.30;;;;;;;9.39;66.40;95471.59;6953814;28;20305;-70
2021/03/05 02:23:26;;;;;;;18.17;13.93;;;;;;;9.35;66.15;95459.56;6979702;28;20633;-70
2021/03/05 02:27:14;;;;;;;21.83;15.13;;;;;;;9.32;65.97;95461.59;6945925;28;20220;-71
2021/03/05 02:30:58;;;;;;;21.73;15.07;;;;;;;9.29;65.80;95464.50;6980942;28;20242;-70
2021/03/05 02:34:41;;;;;;;17.57;15.60;;;;;;;9.23;65.68;95460.53;6979675;28;20232;-70
2021/03/05 02:38:03;;;;;;;20.57;15.73;;;;;;;9.20;65.95;95459.94;6958908;28;20224;-70
2021/03/05 02:41:25;;;;;;;23.13;16.73;;;;;;;9.16;66.23;95461.13;6962069;28;20229;-69
2021/03/05 02:44:55;;;;;;;17.97;16.07;;;;;;;8.99;66.13;95458.03;6973209;28;20270;-70
2021/03/05 02:48:20;;;;;;;22.40;16.70;;;;;;;8.83;66.30;95457.53;6957864;28;20585;-69
2021/03/05 02:51:41;;;;;;;23.43;16.87;;;;;;;8.74;66.53;95449.50;6981419;28;20681;-69
2021/03/05 02:55:07;;;;;;;20.37;17.27;;;;;;;8.65;67.14;95453.69;6961904;28;20225;-69
2021/03/05 02:58:28;;;;;;;18.37;15.47;;;;;;;8.69;68.04;95457.78;6972120;28;20246;-69
2021/03/05 03:01:49;;;;;;;25.27;16.63;;;;;;;8.64;67.42;95459.97;6968911;28;20218;-70
2021/03/05 03:05:10;;;;;;;20.83;15.87;;;;;;;8.63;67.39;95452.13;6974696;28;20228;-69
2021/03/05 03:08:31;;;;;;;21.37;16.70;;;;;;;8.61;67.61;95458.38;6975145;28;20773;-70
2021/03/05 03:11:52;;;;;;;20.70;14.70;;;;;;;8.64;67.74;95452.00;6976725;28;20198;-69
2021/03/05 03:15:15;;;;;;;18.60;14.33;;;;;;;8.60;66.98;95454.03;6964520;28;20300;-70
2021/03/05 03:18:41;;;;;;;15.30;12.63;;;;;;;8.55;66.91;95460.69;6970767;28;20215;-70
2021/03/05 03:22:02;;;;;;;17.63;12.70;;;;;;;8.56;66.47;95462.34;6956051;28;20299;-70
2021/03/05 03:25:24;;;;;;;17.70;11.97;;;;;;;8.57;66.10;95470.16;6967684;28;20625;-70
2021/03/05 03:28:45;;;;;;;13.93;11.53;;;;;;;8.60;66.28;95464.63;6961864;28;20220;-70
2021/03/05 03:32:05;;;;;;;16.13;12.73;;;;;;;8.52;66.28;95477.63;6966481;28;20234;-70
2021/03/05 03:35:25;;;;;;;27.93;19.70;;;;;;;8.45;67.29;95467.66;6980716;28;20586;-70
2021/03/05 03:38:48;;;;;;;25.57;17.93;;;;;;;8.43;68.23;95466.91;6988947;28;20303;-69
2021/03/05 03:42:08;;;;;;;23.23;18.17;;;;;;;8.39;68.60;95476.88;6968707;28;20746;-70
2021/03/05 03:45:30;;;;;;;21.20;16.27;;;;;;;8.45;68.52;95480.88;6977639;28;20212;-70
2021/03/05 03:48:53;;;;;;;21.70;15.00;;;;;;;8.51;68.43;95475.94;6980314;28;20409;-69
2021/03/05 03:52:22;;;;;;;12.87;10.13;;;;;;;8.50;67.53;95473.44;6959978;28;20244;-69
2021/03/05 03:55:43;;;;;;;8.63;7.73;;;;;;;8.52;66.73;95484.72;6952412;28;20242;-70
2021/03/05 03:59:03;;;;;;;9.03;7.20;;;;;;;8.51;65.47;95478.56;6958919;28;20207;-70
2021/03/05 04:02:28;;;;;;;9.67;7.67;;;;;;;8.45;65.05;95479.03;6963382;28;20221;-70
2021/03/05 04:05:51;;;;;;;9.97;8.67;;;;;;;8.40;65.10;95485.69;6960771;28;20604;-70
2021/03/05 04:09:12;;;;;;;12.50;9.63;;;;;;;8.37;64.38;95484.09;6965992;28;20212;-71
2021/03/05 04:12:34;;;;;;;11.43;9.43;;;;;;;8.33;64.69;95490.59;6969910;28;20321;-71
2021/03/05 04:15:55;;;;;;;12.90;9.63;;;;;;;8.32;64.99;95483.59;6956817;28;20221;-70
2021/03/05 04:19:15;;;;;;;15.83;10.27;;;;;;;8.35;65.09;95482.53;6965052;28;20214;-71
2021/03/05 04:22:36;;;;;;;13.30;11.43;;;;;;;8.37;65.38;95483.25;6970960;28;20212;-71
2021/03/05 04:25:56;;;;;;;15.63;11.97;;;;;;;8.39;65.16;95483.97;6965518;28;20213;-71
2021/03/05 04:29:19;;;;;;;13.57;11.10;;;;;;;8.39;65.22;95486.63;6954858;28;20220;-70
2021/03/05 04:32:41;;;;;;;17.43;12.60;;;;;;;8.37;65.58;95483.25;6952094;28;20608;-70
2021/03/05 04:36:03;;;;;;;13.47;12.03;;;;;;;8.38;65.57;95495.53;6967885;28;20594;-70
2021/03/05 04:39:23;;;;;;;14.93;11.97;;;;;;;8.33;66.03;95497.69;6957749;28;20303;-70
2021/03/05 04:42:44;;;;;;;18.17;13.57;;;;;;;8.25;66.46;95494.75;6974350;28;20229;-70
2021/03/05 04:46:04;;;;;;;17.70;12.83;;;;;;;8.29;66.54;95501.47;6969483;28;20239;-70
2021/03/05 04:49:25;;;;;;;16.50;13.67;;;;;;;8.33;66.41;95501.16;6991398;28;20776;-70
2021/03/05 04:52:45;;;;;;;18.33;15.53;;;;;;;8.36;66.84;95498.28;6956185;28;20293;-70
2021/03/05 04:56:05;;;;;;;19.93;14.53;;;;;;;8.32;66.58;95499.47;6989498;28;20242;-71
2021/03/05 04:59:26;;;;;;;18.13;14.63;;;;;;;8.30;67.28;95498.72;6964195;28;20302;-73
2021/03/05 05:02:46;;;;;;;18.43;14.50;;;;;;;8.26;67.41;95494.59;6949206;28;20229;-71
2021/03/05 05:06:07;;;;;;;20.23;15.73;;;;;;;8.25;67.48;95494.75;6991551;28;20327;-71
2021/03/05 05:09:27;;;;;;;21.00;17.77;;;;;;;8.24;68.04;95498.34;6989649;28;20215;-71
2021/03/05 05:12:48;;;;;;;20.83;16.57;;;;;;;8.19;68.00;95501.34;6966501;28;20303;-71
2021/03/05 05:16:08;;;;;;;23.43;18.10;;;;;;;8.22;68.80;95502.91;6990217;28;20238;-70
2021/03/05 05:19:31;;;;;;;24.27;20.87;;;;;;;8.25;68.91;95498.22;6939047;28;20215;-71
2021/03/05 05:22:52;;;;;;;27.97;19.87;;;;;;;8.14;69.07;95499.03;6986156;28;20221;-71
2021/03/05 05:26:16;;;;;;;30.23;20.23;;;;;;;8.02;69.90;95499.94;6951394;28;20211;-71
2021/03/05 05:29:36;;;;;;;25.43;21.43;;;;;;;7.99;70.70;95510.78;6969125;28;20211;-71
2021/03/05 05:32:57;;;;;;;27.93;21.43;;;;;;;7.91;70.75;95497.25;6960778;28;20228;-71
2021/03/05 05:36:17;;;;;;;23.30;20.40;;;;;;;8.02;71.02;95504.41;6982264;28;20296;-70
2021/03/05 05:39:38;;;;;;;27.97;20.50;;;;;;;8.01;71.22;95511.47;6962526;28;20224;-71
2021/03/05 05:42:59;;;;;;;27.27;21.20;;;;;;;8.06;71.29;95505.84;6985572;28;20241;-71
2021/03/05 05:46:24;;;;;;;24.70;20.77;;;;;;;7.96;71.73;95507.50;6985221;28;20727;-71
2021/03/05 05:49:45;;;;;;;26.20;21.40;;;;;;;7.95;71.94;95511.94;6963618;28;20255;-71
2021/03/05 05:53:06;;;;;;;27.33;20.47;;;;;;;8.05;71.79;95514.72;6964744;28;20674;-70
2021/03/05 05:56:29;;;;;;;23.60;20.27;;;;;;;8.07;71.40;95515.47;6956299;28;20222;-70
2021/03/05 05:59:49;;;;;;;24.17;19.40;;;;;;;8.07;71.32;95523.41;6972283;28;20765;-71
2021/03/05 06:03:10;;;;;;;27.70;21.30;;;;;;;8.14;70.58;95517.56;6955313;28;20224;-70
2021/03/05 06:06:31;;;;;;;21.67;17.30;;;;;;;8.11;70.04;95515.13;6961485;28;20658;-71
2021/03/05 06:09:52;;;;;;;17.80;15.73;;;;;;;8.04;69.08;95528.94;6950545;28;20721;-70
2021/03/05 06:13:13;;;;;;;19.57;17.33;;;;;;;8.03;69.37;95524.59;6979739;28;20248;-70
2021/03/05 06:16:34;;;;;;;19.93;17.77;;;;;;;8.05;69.49;95530.59;6967430;28;20290;-70
2021/03/05 06:19:57;;;;;;;19.50;17.20;;;;;;;7.97;69.93;95527.69;6966408;28;20358;-70
2021/03/05 06:23:20;;;;;;;21.03;18.60;;;;;;;7.79;70.32;95529.91;6967062;28;20227;-71
2021/03/05 06:26:47;;;;;;;21.57;18.40;;;;;;;7.67;70.92;95534.28;6969773;28;20285;-72
2021/03/05 06:30:08;;;;;;;22.40;18.93;;;;;;;7.53;70.84;95531.81;6977699;28;20289;-71
2021/03/05 06:33:31;;;;;;;23.53;21.03;;;;;;;7.49;70.87;95540.91;6996352;28;20221;-70
2021/03/05 06:37:06;;;;;;;23.20;20.80;;;;;;;7.44;70.56;95547.47;6978508;28;20222;-70
2021/03/05 06:40:30;;;;;;;23.33;21.03;;;;;;;7.33;70.56;95545.59;6971799;28;21760;-70
2021/03/05 06:43:54;;;;;;;24.47;22.00;;;;;;;7.27;71.16;95546.03;6989875;28;20621;-70
2021/03/05 06:47:16;;;;;;;26.70;24.00;;;;;;;7.26;71.27;95549.63;6980069;28;20222;-70
2021/03/05 06:50:42;;;;;;;26.63;24.03;;;;;;;7.20;70.68;95558.81;6973149;28;20710;-70
2021/03/05 06:54:09;;;;;;;29.40;26.40;;;;;;;7.06;70.97;95561.59;6976412;28;20224;-70
2021/03/05 06:57:29;;;;;;;31.97;28.47;;;;;;;6.94;71.09;95559.78;6971114;28;20583;-70
2021/03/05 07:01:01;;;;;;;30.93;27.73;;;;;;;6.92;71.82;95574.91;6983604;28;20667;-70
2021/03/05 07:04:35;;;;;;;28.47;25.67;;;;;;;6.93;71.55;95575.75;6957579;28;20885;-70
2021/03/05 07:07:58;;;;;;;31.23;28.03;;;;;;;6.94;71.24;95580.09;6977233;28;20313;-71
2021/03/05 07:11:44;;;;;;;30.13;27.03;;;;;;;6.91;71.65;95575.88;6964769;28;20276;-70
2021/03/05 07:15:10;;;;;;;29.27;26.47;;;;;;;6.97;71.85;95571.97;6992533;28;20237;-70
2021/03/05 07:18:30;;;;;;;29.00;25.93;;;;;;;6.97;71.35;95577.25;6972436;28;20367;-70
2021/03/05 07:21:52;;;;;;;27.33;24.73;;;;;;;6.88;71.23;95569.03;6990986;28;20633;-71
2021/03/05 07:25:16;;;;;;;28.33;25.53;;;;;;;6.76;71.38;95584.84;6963591;28;20314;-71
2021/03/05 07:28:43;;;;;;;27.33;24.63;;;;;;;6.64;71.77;95586.50;6987097;28;20219;-70
2021/03/05 07:32:10;;;;;;;27.20;24.40;;;;;;;6.58;71.80;95594.03;6971359;28;20644;-71
2021/03/05 07:35:37;;;;;;;25.83;23.27;;;;;;;6.53;71.94;95596.13;6964476;28;20207;-70
2021/03/05 07:39:07;;;;;;;24.90;22.40;;;;;;;6.51;71.72;95598.00;6950530;28;20218;-70
2021/03/05 07:42:27;;;;;;;24.50;22.00;;;;;;;6.52;71.66;95604.97;6946464;28;20219;-70
2021/03/05 07:45:48;;;;;;;24.20;21.87;;;;;;;6.45;71.40;95615.09;6963991;28;20219;-72
2021/03/05 07:49:09;;;;;;;26.13;23.60;;;;;;;6.40;71.29;95611.91;6968050;28;20635;-71
2021/03/05 07:52:29;;;;;;;25.40;22.87;;;;;;;6.37;71.77;95617.41;6947481;28;20368;-70
2021/03/05 07:55:50;;;;;;;25.23;22.53;;;;;;;6.30;71.85;95635.41;6949195;28;20294;-70
2021/03/05 07:59:11;;;;;;;24.83;22.23;;;;;;;6.25;72.34;95619.06;6950674;28;20223;-71
2021/03/05 08:03:10;;;;;;;24.37;21.73;;;;;;;6.20;72.09;95623.78;6945834;28;20302;-71
2021/03/05 08:06:34;;;;;;;25.80;23.00;;;;;;;6.16;72.38;95621.44;6832267;28;20263;-71
2021/03/05 08:09:57;;;;;;;25.93;23.23;;;;;;;6.15;72.45;95625.03;6868025;28;20219;-71
2021/03/05 08:17:30;;;;;;;23.33;20.93;;;;;;;6.14;72.86;95636.50;6965860;28;20210;-70
2021/03/05 08:20:52;;;;;;;25.77;23.07;;;;;;;6.07;72.73;95645.78;6937192;28;20288;-70
2021/03/05 08:24:41;;;;;;;23.77;21.27;;;;;;;6.06;72.66;95649.34;6941513;28;20250;-70
2021/03/05 08:28:03;;;;;;;22.87;20.23;;;;;;;5.97;72.62;95656.09;6954090;28;20698;-70
2021/03/05 08:31:35;;;;;;;22.93;20.37;;;;;;;5.90;72.62;95658.25;6962022;28;20219;-71
2021/03/05 08:34:55;;;;;;;23.27;20.77;;;;;;;5.91;72.60;95659.97;6961442;28;20226;-71
2021/03/05 08:38:19;;;;;;;22.93;20.43;;;;;;;5.96;72.73;95665.78;6939210;28;20378;-70
2021/03/05 08:41:39;;;;;;;22.43;19.70;;;;;;;5.99;72.29;95676.09;6964287;28;20223;-71
2021/03/05 08:45:13;;;;;;;23.27;19.77;;;;;;;6.00;71.83;95669.06;6962956;28;20222;-70
2021/03/05 08:48:44;;;;;;;21.30;18.70;;;;;;;5.93;71.35;95670.41;6974726;28;20226;-70
2021/03/05 08:52:04;;;;;;;20.13;17.90;;;;;;;5.94;71.34;95669.44;6964243;28;20696;-72
2021/03/05 08:55:29;;;;;;;22.77;20.27;;;;;;;6.01;71.49;95674.22;6956407;28;20699;-71
2021/03/05 08:59:06;;;;;;;21.93;19.53;;;;;;;6.02;71.11;95680.34;6956205;28;20218;-70
2021/03/05 09:02:29;;;;;;;20.40;18.27;;;;;;;6.10;70.74;95671.94;6940810;28;20758;-70
2021/03/05 09:05:50;;;;;;;19.83;17.70;;;;;;;6.13;70.40;95677.03;6964545;28;20223;-70
2021/03/05 09:09:12;;;;;;;18.53;16.47;;;;;;;6.14;70.00;95676.06;6932846;28;20684;-73
2021/03/05 09:12:32;;;;;;;19.93;16.70;;;;;;;6.08;69.64;95681.75;6951968;28;20227;-72
2021/03/05 09:15:55;;;;;;;17.37;15.50;;;;;;;6.02;69.31;95680.34;6938747;28;20214;-73
2021/03/05 09:19:16;;;;;;;19.97;17.87;;;;;;;6.03;69.59;95684.69;6948445;28;20222;-73
2021/03/05 09:22:36;;;;;;;19.83;16.53;;;;;;;5.99;69.39;95681.38;6965055;28;20642;-73
2021/03/05 09:25:59;;;;;;;19.13;16.00;;;;;;;5.96;69.77;95676.31;6953739;28;20222;-74
2021/03/05 09:29:28;;;;;;;19.90;16.47;;;;;;;5.94;69.59;95696.66;6939014;28;20708;-73
2021/03/05 09:32:51;;;;;;;18.63;16.40;;;;;;;5.91;69.62;95696.00;6955549;28;20230;-74
2021/03/05 09:36:16;;;;;;;17.97;15.67;;;;;;;5.83;68.87;95703.53;6963400;28;20225;-75
2021/03/05 09:39:37;;;;;;;17.20;15.40;;;;;;;5.85;69.15;95706.91;6977105;28;20217;-73
2021/03/05 09:43:02;;;;;;;18.63;16.53;;;;;;;5.91;68.56;95696.00;6980152;28;20236;-73
2021/03/05 09:46:24;;;;;;;16.77;15.07;;;;;;;5.95;68.55;95692.22;6972794;28;20668;-72
2021/03/05 09:49:45;;;;;;;17.87;16.03;;;;;;;6.01;68.27;95697.97;6980313;28;20598;-74
2021/03/05 09:53:26;;;;;;;17.87;15.97;;;;;;;6.00;67.50;95701.53;6946598;28;20772;-74
2021/03/05 09:56:49;;;;;;;20.70;16.13;;;;;;;6.04;67.87;95697.75;6954930;28;21030;-73
2021/03/05 10:00:10;;;;;;;20.57;16.50;;;;;;;6.03;67.35;95705.78;6960165;28;20310;-73
2021/03/05 10:03:31;;;;;;;16.70;15.00;;;;;;;6.04;67.39;95700.38;6957911;28;20230;-74
2021/03/05 10:06:54;;;;;;;18.30;14.93;;;;;;;6.09;67.42;95715.06;6977578;28;20215;-72
2021/03/05 10:10:17;;;;;;;16.80;14.63;;;;;;;6.14;67.18;95710.34;6975111;28;20225;-74
2021/03/05 10:13:50;;;;;;;19.30;16.43;;;;;;;6.19;67.57;95708.25;6960004;28;20299;-73
2021/03/05 10:17:19;;;;;;;19.83;17.60;;;;;;;6.22;67.45;95714.19;6952363;28;20758;-72
2021/03/05 10:20:39;;;;;;;19.37;16.93;;;;;;;6.27;67.42;95725.31;6953160;28;20217;-73
2021/03/05 10:24:04;;;;;;;21.23;17.50;;;;;;;6.26;67.05;95722.75;6962540;28;20226;-74
2021/03/05 10:27:25;;;;;;;18.83;16.83;;;;;;;6.28;67.18;95740.19;6965302;28;20675;-75
2021/03/05 10:30:49;;;;;;;20.17;17.93;;;;;;;6.42;67.53;95740.13;6961943;28;20244;-75
2021/03/05 10:34:28;;;;;;;20.80;17.63;;;;;;;6.41;67.34;95748.16;6966879;28;20207;-75
2021/03/05 10:37:50;;;;;;;19.87;16.70;;;;;;;6.57;66.94;95740.06;6986987;28;20420;-74
2021/03/05 10:41:11;;;;;;;20.70;18.07;;;;;;;6.59;66.71;95749.56;6948395;28;20223;-74
2021/03/05 10:44:34;;;;;;;21.60;18.53;;;;;;;6.65;66.54;95772.06;6952453;28;20218;-73
2021/03/05 10:47:55;;;;;;;19.83;17.13;;;;;;;6.68;66.67;95759.56;6964347;28;20765;-74
2021/03/05 10:51:15;;;;;;;20.30;18.13;;;;;;;6.71;66.35;95774.31;6972204;28;20210;-73
2021/03/05 10:54:36;;;;;;;21.73;17.77;;;;;;;6.63;65.73;95784.53;6962379;28;20217;-73
2021/03/05 10:57:56;;;;;;;19.67;17.40;;;;;;;6.54;65.72;95766.69;6966995;28;20224;-73
2021/03/05 11:01:17;;;;;;;21.47;17.70;;;;;;;6.43;65.57;95773.50;6951179;28;20226;-73
2021/03/05 11:04:39;;;;;;;21.30;18.50;;;;;;;6.25;65.89;95789.63;6962761;28;20264;-73
2021/03/05 11:08:00;;;;;;;22.30;18.87;;;;;;;6.25;66.67;95792.25;6957361;28;20222;-74
2021/03/05 11:11:20;;;;;;;20.03;17.80;;;;;;;6.41;66.57;95780.66;6952288;28;20215;-73
2021/03/05 11:14:41;;;;;;;21.30;18.33;;;;;;;6.48;66.50;95770.56;6963384;28;20234;-73
2021/03/05 11:18:01;;;;;;;19.90;17.33;;;;;;;6.55;66.31;95782.38;6971235;28;20234;-72
2021/03/05 11:21:22;;;;;;;19.90;17.80;;;;;;;6.60;66.00;95782.09;6964551;28;20286;-73
2021/03/05 11:24:42;;;;;;;22.07;18.70;;;;;;;6.52;65.29;95787.88;6953495;28;20297;-73
2021/03/05 11:28:04;;;;;;;25.00;18.80;;;;;;;6.45;65.44;95791.84;6973775;28;20309;-73
2021/03/05 11:31:24;;;;;;;21.13;18.83;;;;;;;6.46;65.91;95796.19;6972286;28;20306;-73
2021/03/05 11:34:45;;;;;;;22.83;19.23;;;;;;;6.52;65.88;95790.50;6978068;28;20209;-73
2021/03/05 11:38:05;;;;;;;22.77;19.20;;;;;;;6.42;65.09;95792.91;6982933;28;20225;-76
2021/03/05 11:41:26;;;;;;;24.43;20.73;;;;;;;6.35;65.00;95803.91;6965814;28;20218;-74
2021/03/05 11:44:46;;;;;;;22.53;18.87;;;;;;;6.35;65.43;95804.78;6976159;28;20213;-74
2021/03/05 11:48:07;;;;;;;23.13;19.07;;;;;;;6.37;65.36;95809.97;6973182;28;20214;-74
2021/03/05 11:51:28;;;;;;;23.77;20.07;;;;;;;6.36;65.08;95806.47;6951661;28;20343;-75
2021/03/05 11:54:48;;;;;;;22.70;19.63;;;;;;;6.36;65.10;95802.97;6960130;28;20240;-74
2021/03/05 11:58:09;;;;;;;22.60;18.83;;;;;;;6.31;65.24;95803.28;6984843;28;20320;-73
2021/03/05 12:01:29;;;;;;;21.37;18.23;;;;;;;6.34;64.97;95810.97;6977742;28;20328;-74
2021/03/05 12:04:50;;;;;;;23.00;19.37;;;;;;;6.36;65.13;95814.38;6967355;28;20205;-74
2021/03/05 12:08:10;;;;;;;21.77;18.67;;;;;;;6.44;65.32;95805.97;6963920;28;20211;-74
2021/03/05 12:11:31;;;;;;;22.60;19.13;;;;;;;6.37;64.62;95804.69;6961208;28;20223;-74
2021/03/05 12:14:51;;;;;;;22.27;19.20;;;;;;;6.29;65.26;95807.78;6963471;28;20234;-73
2021/03/05 12:18:12;;;;;;;23.43;19.60;;;;;;;6.36;65.64;95805.63;6965322;28;20268;-74
2021/03/05 12:21:33;;;;;;;23.40;19.57;;;;;;;6.52;65.51;95798.44;6949957;28;20211;-73
2021/03/05 12:24:53;;;;;;;21.90;19.60;;;;;;;6.60;65.20;95795.28;6966857;28;20206;-74
2021/03/05 12:28:13;;;;;;;23.13;18.93;;;;;;;6.62;64.76;95793.41;6960886;28;20226;-74
2021/03/05 12:31:34;;;;;;;23.13;19.30;;;;;;;6.60;65.05;95790.84;6957678;28;20236;-74
2021/03/05 12:34:54;;;;;;;24.23;20.00;;;;;;;6.66;64.75;95800.16;6977358;28;20213;-74
2021/03/05 12:38:15;;;;;;;25.80;20.07;;;;;;;6.72;64.77;95791.88;6987540;28;20579;-73
2021/03/05 12:41:35;;;;;;;24.93;19.83;;;;;;;6.75;64.83;95794.28;6988955;28;20213;-74
2021/03/05 12:44:55;;;;;;;22.03;18.97;;;;;;;6.79;64.28;95794.00;6964200;28;20250;-74
2021/03/05 12:48:16;;;;;;;21.97;19.50;;;;;;;6.75;64.25;95794.28;6966254;28;20222;-74
2021/03/05 12:51:36;;;;;;;22.77;20.00;;;;;;;6.67;64.01;95789.53;6967606;28;20206;-74
2021/03/05 12:54:57;;;;;;;21.87;18.40;;;;;;;6.67;64.05;95789.53;6956886;28;20222;-74
2021/03/05 12:58:17;;;;;;;21.17;18.47;;;;;;;6.47;63.93;95784.69;6956991;28;20306;-73
2021/03/05 13:01:38;;;;;;;22.53;19.17;;;;;;;6.37;64.28;95787.06;6960815;28;20263;-74
2021/03/05 13:04:58;;;;;;;21.87;18.30;;;;;;;6.30;64.88;95788.38;6963515;28;20591;-74
2021/03/05 13:08:18;;;;;;;23.77;19.60;;;;;;;6.31;64.53;95786.59;6965949;28;20278;-74
2021/03/05 13:11:39;;;;;;;21.70;18.37;;;;;;;6.28;64.98;95779.75;6949922;28;20246;-73
2021/03/05 13:14:59;;;;;;;22.03;19.47;;;;;;;6.42;65.38;95782.34;6936579;28;20255;-73
2021/03/05 13:18:19;;;;;;;25.17;19.60;;;;;;;6.49;65.04;95784.59;6960589;28;20243;-74
2021/03/05 13:21:40;;;;;;;21.50;19.20;;;;;;;6.46;64.91;95788.25;6936338;28;20227;-72
2021/03/05 13:25:01;;;;;;;23.57;19.87;;;;;;;6.53;64.87;95791.38;6945681;28;20214;-73
2021/03/05 13:28:23;;;;;;;24.67;19.37;;;;;;;6.42;64.56;95807.88;6947912;28;20207;-72
2021/03/05 13:31:49;;;;;;;20.33;17.67;;;;;;;6.30;64.61;95806.84;6930760;28;20639;-72
2021/03/05 13:35:10;;;;;;;24.50;20.07;;;;;;;6.06;64.84;95812.81;6937322;28;20230;-74
2021/03/05 13:38:31;;;;;;;21.50;18.60;;;;;;;5.93;65.89;95802.19;6949597;28;20211;-73
2021/03/05 13:41:52;;;;;;;23.87;19.10;;;;;;;5.89;66.17;95806.78;6928090;28;20218;-75
2021/03/05 13:45:12;;;;;;;26.00;19.37;;;;;;;5.87;66.39;95803.44;6944320;28;20617;-74
2021/03/05 13:48:33;;;;;;;21.87;19.37;;;;;;;5.91;66.85;95809.34;6936002;28;20714;-73
2021/03/05 13:51:53;;;;;;;23.03;19.43;;;;;;;5.94;66.86;95807.34;6949322;28;20234;-74
2021/03/05 13:55:14;;;;;;;26.87;20.83;;;;;;;5.88;67.08;95818.31;6952450;28;20281;-74
2021/03/05 13:58:34;;;;;;;26.67;21.83;;;;;;;5.82;67.02;95823.06;6948381;28;20229;-72
2021/03/05 14:01:57;;;;;;;23.10;20.47;;;;;;;5.86;67.32;95817.50;6948663;28;20215;-73
2021/03/05 14:05:17;;;;;;;25.13;21.63;;;;;;;5.89;67.47;95808.59;6939912;28;20214;-73
2021/03/05 14:08:37;;;;;;;23.33;20.60;;;;;;;6.01;67.35;95810.47;6955808;28;20213;-74
2021/03/05 14:12:00;;;;;;;24.13;19.63;;;;;;;6.00;67.37;95809.63;6950921;28;20712;-73
2021/03/05 14:15:21;;;;;;;24.77;20.77;;;;;;;6.16;67.63;95808.66;6957449;28;20219;-72
2021/03/05 14:18:44;;;;;;;23.57;19.93;;;;;;;6.22;67.44;95810.94;6940746;28;20210;-73
2021/03/05 14:22:05;;;;;;;22.20;19.63;;;;;;;6.18;66.65;95807.66;6938728;28;20275;-73
2021/03/05 14:25:25;;;;;;;24.70;20.37;;;;;;;6.19;66.71;95811.94;6942840;28;20210;-74
2021/03/05 14:28:46;;;;;;;23.60;20.33;;;;;;;6.16;66.32;95817.44;6969125;28;20738;-73
2021/03/05 14:32:08;;;;;;;27.17;20.23;;;;;;;5.99;66.84;95810.56;6941396;28;21054;-73
2021/03/05 14:35:28;;;;;;;25.03;20.33;;;;;;;5.97;67.41;95814.25;6946358;28;20223;-72
2021/03/05 14:38:49;;;;;;;22.20;19.77;;;;;;;6.09;67.99;95815.25;6967305;28;20294;-73
2021/03/05 14:42:09;;;;;;;24.03;19.53;;;;;;;6.27;67.64;95833.44;6945393;28;20207;-72
2021/03/05 14:45:30;;;;;;;23.67;19.63;;;;;;;6.37;66.92;95834.56;6938897;28;20211;-74
2021/03/05 14:48:50;;;;;;;22.80;19.83;;;;;;;6.18;66.49;95826.09;6959855;28;20218;-73
2021/03/05 14:52:11;;;;;;;24.07;20.17;;;;;;;6.11;66.88;95848.50;6968502;28;20289;-74
2021/03/05 14:55:31;;;;;;;22.37;19.13;;;;;;;6.18;67.31;95847.19;6980957;28;20253;-74
2021/03/05 14:58:52;;;;;;;22.60;19.83;;;;;;;6.23;67.20;95844.28;6940697;28;20241;-73
2021/03/05 15:02:14;;;;;;;24.07;19.00;;;;;;;6.04;66.75;95855.94;6954445;28;20227;-75
2021/03/05 15:05:41;;;;;;;23.27;18.57;;;;;;;5.93;67.65;95857.56;6954832;28;20221;-73
2021/03/05 15:09:02;;;;;;;23.50;19.97;;;;;;;5.96;68.21;95857.34;6942436;28;20246;-73
2021/03/05 15:12:24;;;;;;;23.93;19.10;;;;;;;5.96;68.29;95858.22;6937153;28;20211;-74
2021/03/05 15:15:46;;;;;;;26.50;19.97;;;;;;;5.91;67.75;95860.28;6956420;28;20327;-73
2021/03/05 15:19:07;;;;;;;22.20;19.50;;;;;;;5.80;67.80;95862.69;6940769;28;20211;-74
2021/03/05 15:22:27;;;;;;;23.77;19.67;;;;;;;5.80;68.71;95867.94;6936212;28;20301;-74
2021/03/05 15:25:47;;;;;;;24.23;20.23;;;;;;;5.74;68.54;95870.94;6945732;28;20239;-75
2021/03/05 15:29:10;;;;;;;22.73;19.57;;;;;;;5.76;68.85;95874.34;6957560;28;20770;-75
2021/03/05 15:32:31;;;;;;;21.77;19.23;;;;;;;5.88;68.73;95870.16;6988600;28;20222;-76
2021/03/05 15:35:51;;;;;;;21.77;18.67;;;;;;;5.83;68.93;95882.75;6958970;28;20209;-74
2021/03/05 15:39:12;;;;;;;21.93;18.87;;;;;;;5.78;68.33;95880.38;6966212;28;20264;-75
2021/03/05 15:42:32;;;;;;;21.17;18.40;;;;;;;5.72;67.99;95874.63;6960222;28;20226;-76
2021/03/05 15:45:53;;;;;;;19.67;17.57;;;;;;;5.63;68.57;95882.13;6958007;28;20216;-73
2021/03/05 15:49:15;;;;;;;22.53;18.37;;;;;;;5.69;68.51;95878.28;6974588;28;20998;-75